ASXGS EGSQ-EGYC

Flight info

Callsign ASXGS
Flight time N/A
Altitude 3000
Route EGSQ DCT EGYC
Aircraft DA40/L-SDG/L

Departure

Time 2026-04-26 14:30
Airport Clacton Airfield (EGSQ)

Arrival

Time N/A
Airport EGYC
Time Latitude Longitude Altitude Speed Heading
2026-04-26 14:27 51.78280 1.13012 32 ft 3 kts 324°
2026-04-26 14:27 51.78296 1.13009 33 ft 4 kts
2026-04-26 14:28 51.78327 1.13011 34 ft 4 kts 360°
2026-04-26 14:28 51.78356 1.13010 34 ft 0 kts 358°
2026-04-26 14:29 51.78429 1.13007 37 ft 27 kts 359°
2026-04-26 14:29 51.78661 1.13005 43 ft 34 kts 360°
2026-04-26 14:29 51.78764 1.13005 46 ft 3 kts 180°
2026-04-26 14:29 51.78727 1.13007 45 ft 8 kts 178°
2026-04-26 14:30 51.78491 1.13018 39 ft 68 kts 180°
2026-04-26 14:30 51.77983 1.13202 324 ft 74 kts 136°
2026-04-26 14:30 51.77998 1.14028 591 ft 83 kts 55°
2026-04-26 14:30 51.78424 1.14452 984 ft 75 kts 13°
2026-04-26 14:31 51.79003 1.14640 1194 ft 94 kts 12°
2026-04-26 14:31 51.79655 1.14859 1489 ft 95 kts 10°
2026-04-26 14:31 51.80298 1.15067 1820 ft 94 kts 11°
2026-04-26 14:31 51.80942 1.15281 2153 ft 95 kts 11°
2026-04-26 14:32 51.81586 1.15497 2485 ft 94 kts 11°
2026-04-26 14:32 51.82228 1.15716 2817 ft 94 kts 11°
2026-04-26 14:32 51.82898 1.15932 2997 ft 109 kts
2026-04-26 14:32 51.83720 1.16135 3018 ft 128 kts
2026-04-26 14:33 51.84642 1.16320 3012 ft 137 kts
2026-04-26 14:33 51.85565 1.16500 3010 ft 141 kts
2026-04-26 14:34 51.85977 1.16581 3011 ft 142 kts
2026-04-26 14:34 51.86957 1.16773 3011 ft 142 kts
2026-04-26 14:34 51.87941 1.16962 3011 ft 142 kts
2026-04-26 14:35 51.88929 1.17152 3009 ft 143 kts
2026-04-26 14:35 51.89918 1.17344 3005 ft 143 kts
2026-04-26 14:35 51.90903 1.17531 3008 ft 142 kts
2026-04-26 14:35 51.91890 1.17722 3006 ft 143 kts
2026-04-26 14:36 51.92874 1.17913 3009 ft 143 kts
2026-04-26 14:36 51.93864 1.18101 3003 ft 143 kts
2026-04-26 14:36 51.94854 1.18290 3005 ft 143 kts
2026-04-26 14:36 51.95787 1.18468 3009 ft 143 kts
2026-04-26 14:37 51.96782 1.18658 3007 ft 144 kts
2026-04-26 14:37 51.97794 1.18855 3009 ft 145 kts
2026-04-26 14:37 51.98794 1.19051 3007 ft 144 kts
2026-04-26 14:37 51.99788 1.19236 3005 ft 144 kts
2026-04-26 14:38 52.00786 1.19423 3001 ft 145 kts
2026-04-26 14:38 52.01769 1.19616 3001 ft 143 kts
2026-04-26 14:38 52.02773 1.19807 3005 ft 144 kts
2026-04-26 14:38 52.03438 1.19936 3004 ft 145 kts
2026-04-26 14:39 52.04763 1.20191 3004 ft 145 kts
2026-04-26 14:39 52.05762 1.20381 2998 ft 144 kts
2026-04-26 14:39 52.06757 1.20580 3002 ft 144 kts
2026-04-26 14:39 52.07747 1.20767 2996 ft 142 kts
2026-04-26 14:40 52.08737 1.20958 3005 ft 144 kts
2026-04-26 14:40 52.09734 1.21150 3003 ft 144 kts
2026-04-26 14:40 52.10726 1.21347 3001 ft 143 kts
2026-04-26 14:40 52.11717 1.21534 2998 ft 144 kts
2026-04-26 14:41 52.12710 1.21729 3004 ft 143 kts
2026-04-26 14:41 52.13709 1.21925 2998 ft 144 kts
2026-04-26 14:41 52.14701 1.22114 2998 ft 142 kts
2026-04-26 14:41 52.15686 1.22309 3002 ft 144 kts
2026-04-26 14:42 52.16675 1.22501 2998 ft 143 kts
2026-04-26 14:42 52.17659 1.22690 2997 ft 142 kts
2026-04-26 14:42 52.18642 1.22880 2997 ft 142 kts
2026-04-26 14:42 52.19635 1.23077 2997 ft 144 kts
2026-04-26 14:43 52.20630 1.23272 3006 ft 144 kts
2026-04-26 14:43 52.21630 1.23464 3005 ft 144 kts
2026-04-26 14:43 52.22627 1.23658 2997 ft 143 kts
2026-04-26 14:43 52.23616 1.23844 3003 ft 144 kts
2026-04-26 14:44 52.24603 1.24030 2998 ft 145 kts
2026-04-26 14:44 52.25596 1.24221 3003 ft 144 kts
2026-04-26 14:44 52.26268 1.24351 3002 ft 145 kts
2026-04-26 14:44 52.27272 1.24545 3000 ft 145 kts
2026-04-26 14:45 52.28604 1.24809 3006 ft 145 kts
2026-04-26 14:45 52.28945 1.24877 3004 ft 146 kts
2026-04-26 14:45 52.30609 1.25088 3005 ft 144 kts
2026-04-26 14:45 52.31289 1.25162 3003 ft 145 kts
2026-04-26 14:46 52.32293 1.25279 2998 ft 144 kts
2026-04-26 14:46 52.33606 1.25419 3000 ft 143 kts
2026-04-26 14:46 52.34264 1.25494 3003 ft 143 kts
2026-04-26 14:46 52.35279 1.25604 3005 ft 146 kts
2026-04-26 14:47 52.36270 1.25708 2997 ft 143 kts
2026-04-26 14:47 52.37276 1.25820 3004 ft 143 kts
2026-04-26 14:47 52.38269 1.25930 3003 ft 145 kts
2026-04-26 14:47 52.39279 1.26035 3004 ft 146 kts
2026-04-26 14:48 52.40289 1.26145 3003 ft 146 kts
2026-04-26 14:48 52.41295 1.26255 3004 ft 145 kts
2026-04-26 14:48 52.42304 1.26359 3005 ft 145 kts
2026-04-26 14:48 52.43304 1.26465 2996 ft 142 kts
2026-04-26 14:49 52.44289 1.26578 3000 ft 143 kts
2026-04-26 14:49 52.45286 1.26685 3001 ft 144 kts
2026-04-26 14:49 52.46284 1.26793 3002 ft 144 kts
2026-04-26 14:49 52.47282 1.26905 2997 ft 143 kts
2026-04-26 14:50 52.48270 1.27016 3003 ft 142 kts
2026-04-26 14:50 52.49266 1.27130 2998 ft 143 kts
2026-04-26 14:50 52.50255 1.27240 3001 ft 142 kts
2026-04-26 14:50 52.51246 1.27346 3000 ft 143 kts
2026-04-26 14:51 52.52249 1.27453 3003 ft 146 kts
2026-04-26 14:51 52.53256 1.27564 2997 ft 145 kts
2026-04-26 14:51 52.54243 1.27669 2997 ft 143 kts
2026-04-26 14:51 52.55237 1.27778 3001 ft 143 kts
2026-04-26 14:52 52.56228 1.27894 3006 ft 144 kts
2026-04-26 14:52 52.57232 1.28006 2997 ft 144 kts
2026-04-26 14:52 52.58229 1.28102 2999 ft 143 kts
2026-04-26 14:52 52.59226 1.28211 3004 ft 145 kts
2026-04-26 14:53 52.60233 1.28322 3004 ft 145 kts
2026-04-26 14:53 52.61240 1.28433 2999 ft 144 kts
2026-04-26 14:53 52.62236 1.28541 2998 ft 143 kts
2026-04-26 14:53 52.63230 1.28654 3000 ft 142 kts
2026-04-26 14:54 52.64225 1.28772 2996 ft 143 kts
2026-04-26 14:54 52.65219 1.28877 2996 ft 143 kts
2026-04-26 14:54 52.66208 1.28988 2995 ft 142 kts
2026-04-26 14:54 52.67178 1.29092 3000 ft 142 kts
2026-04-26 14:55 52.68176 1.29198 3002 ft 145 kts
2026-04-26 14:55 52.69197 1.29314 2896 ft 146 kts
2026-04-26 14:55 52.70138 1.29655 2471 ft 132 kts 19°
2026-04-26 14:55 52.70954 1.30294 1983 ft 128 kts 31°
2026-04-26 14:56 52.71677 1.31068 1562 ft 124 kts 36°
2026-04-26 14:56 52.72365 1.31909 1170 ft 120 kts 38°
2026-04-26 14:56 52.73003 1.32748 837 ft 115 kts 38°
2026-04-26 14:56 52.73634 1.33549 507 ft 112 kts 37°
2026-04-26 14:57 52.74237 1.34282 262 ft 103 kts 35°
2026-04-26 14:57 52.74792 1.34936 86 ft 91 kts 36°
2026-04-26 14:57 52.75254 1.35511 60 ft 76 kts 37°
2026-04-26 14:57 52.75637 1.35947 61 ft 55 kts 36°
2026-04-26 14:58 52.75935 1.36296 62 ft 44 kts 34°
2026-04-26 14:58 52.76066 1.36442 68 ft 7 kts 38°
2026-04-26 14:58 52.76192 1.36586 69 ft 37 kts 34°
2026-04-26 14:58 52.76353 1.36672 62 ft 21 kts 311°
2026-04-26 14:59 52.76383 1.36548 68 ft 0 kts 263°
2026-04-26 14:59 52.76366 1.36463 66 ft 26 kts 236°
2026-04-26 14:59 52.76223 1.36281 69 ft 26 kts 217°
2026-04-26 14:59 52.76121 1.36158 68 ft 29 kts 214°
2026-04-26 15:00 52.75995 1.35959 67 ft 20 kts 249°
2026-04-26 15:00 52.75945 1.35739 63 ft 20 kts 248°
2026-04-26 15:00 52.75880 1.35508 65 ft 24 kts 248°
2026-04-26 15:00 52.75810 1.35281 63 ft 16 kts 247°
2026-04-26 15:01 52.75757 1.35092 64 ft 21 kts 229°
2026-04-26 15:01 52.75638 1.34988 64 ft 20 kts 184°
2026-04-26 15:01 52.75541 1.35017 61 ft 7 kts 110°
2026-04-26 15:01 52.75539 1.35035 63 ft 0 kts 102°
2026-04-26 15:02 52.75538 1.35037 63 ft 0 kts